createdAt,value
2022-09-14T00:00:24.133Z,0.70
2022-09-14T00:02:57.030Z,0.70
2022-09-14T00:08:04.039Z,0.90
2022-09-14T00:13:13.312Z,0.93
2022-09-14T00:15:46.782Z,1.10
2022-09-14T00:18:19.478Z,0.77
2022-09-14T00:20:53.894Z,1.17
2022-09-14T00:23:26.580Z,0.55
2022-09-14T00:26:03.710Z,0.70
2022-09-14T00:28:38.911Z,0.80
2022-09-14T00:31:12.272Z,0.70
2022-09-14T00:33:47.287Z,1.00
2022-09-14T00:36:24.741Z,0.93
2022-09-14T00:38:58.295Z,0.77
2022-09-14T00:41:33.186Z,0.90
2022-09-14T00:44:08.753Z,0.68
2022-09-14T00:46:44.104Z,0.80
2022-09-14T00:49:19.604Z,0.70
2022-09-14T00:51:59.876Z,0.70
2022-09-14T00:54:32.738Z,0.80
2022-09-14T00:57:06.196Z,0.73
2022-09-14T00:59:40.609Z,1.25
2022-09-14T01:02:15.781Z,0.77
2022-09-14T01:04:50.046Z,0.80
2022-09-14T01:07:46.305Z,0.80
2022-09-14T01:10:29.713Z,0.70
2022-09-14T01:16:03.835Z,1.00
2022-09-14T01:18:40.451Z,0.82
2022-09-14T01:21:17.041Z,1.00
2022-09-14T01:23:58.289Z,0.77
2022-09-14T01:27:24.368Z,0.82
2022-09-14T01:30:05.893Z,0.98
2022-09-14T01:32:43.963Z,0.50
2022-09-14T01:35:24.070Z,1.10
2022-09-14T01:38:01.616Z,0.80
2022-09-14T01:40:38.299Z,0.70
2022-09-14T01:43:15.663Z,0.63
2022-09-14T01:45:52.933Z,0.70
2022-09-14T01:48:35.946Z,0.75
2022-09-14T01:51:15.347Z,0.70
2022-09-14T01:53:51.021Z,0.77
2022-09-14T01:56:31.985Z,0.50
2022-09-14T01:59:10.426Z,0.88
2022-09-14T02:01:50.631Z,0.80
2022-09-14T02:04:30.420Z,0.50
2022-09-14T02:07:03.792Z,0.82
2022-09-14T02:09:36.625Z,0.60
2022-09-14T02:12:09.903Z,0.65
2022-09-14T02:14:43.890Z,1.13
2022-09-14T02:17:18.047Z,0.80
2022-09-14T02:19:55.119Z,0.73
2022-09-14T02:22:30.070Z,0.70
2022-09-14T02:25:03.075Z,0.90
2022-09-14T02:30:10.032Z,0.70
2022-09-14T02:32:56.388Z,0.85
2022-09-14T02:35:37.196Z,0.80
2022-09-14T02:38:18.030Z,1.05
2022-09-14T02:40:58.020Z,0.95
2022-09-14T02:43:39.506Z,0.90
2022-09-14T02:46:18.377Z,1.02
2022-09-14T02:48:59.084Z,1.00
2022-09-14T02:51:35.302Z,1.17
2022-09-14T02:54:12.764Z,0.70
2022-09-14T02:56:46.083Z,0.90
2022-09-14T02:59:19.059Z,0.77
2022-09-14T03:04:25.637Z,0.77
2022-09-14T03:06:58.305Z,0.80
2022-09-14T03:09:30.989Z,0.80
2022-09-14T03:12:04.274Z,0.95
2022-09-14T03:14:36.974Z,0.90
2022-09-14T03:17:09.732Z,0.70
2022-09-14T03:19:43.774Z,0.80
2022-09-14T03:22:16.584Z,0.90
2022-09-14T03:24:49.463Z,1.00
2022-09-14T03:29:55.198Z,0.57
2022-09-14T03:32:27.842Z,0.82
2022-09-14T03:35:02.255Z,0.90
2022-09-14T03:37:38.360Z,1.02
2022-09-14T03:40:15.983Z,0.60
2022-09-14T03:42:52.774Z,0.93
2022-09-14T03:45:25.833Z,0.60
2022-09-14T03:50:32.738Z,0.82
2022-09-14T03:53:05.420Z,1.00
2022-09-14T03:55:41.045Z,1.00
2022-09-14T03:58:13.625Z,0.65
2022-09-14T04:00:46.286Z,1.02
2022-09-14T04:03:19.281Z,0.57
2022-09-14T04:05:57.224Z,0.57
2022-09-14T04:08:29.956Z,0.65
2022-09-14T04:11:07.914Z,0.68
2022-09-14T04:13:41.465Z,0.88
2022-09-14T04:16:15.090Z,0.90
2022-09-14T04:18:48.392Z,0.82
2022-09-14T04:21:25.146Z,0.73
2022-09-14T04:24:15.885Z,0.52
2022-09-14T04:26:49.081Z,0.80
2022-09-14T04:29:21.844Z,0.60
2022-09-14T04:31:54.831Z,0.60
2022-09-14T04:37:01.661Z,0.57
2022-09-14T04:39:34.401Z,0.60
2022-09-14T04:42:08.102Z,0.63
2022-09-14T04:44:41.110Z,0.70
2022-09-14T04:49:46.387Z,0.40
2022-09-14T04:52:20.426Z,0.55
2022-09-14T04:54:53.093Z,0.70
2022-09-14T04:57:25.905Z,0.60
2022-09-14T04:59:58.586Z,0.80
2022-09-14T05:02:31.956Z,0.80
2022-09-14T05:05:05.282Z,1.02
2022-09-14T05:07:39.250Z,0.80
2022-09-14T05:10:11.940Z,0.98
2022-09-14T05:12:44.590Z,1.00
2022-09-14T05:15:17.366Z,0.50
2022-09-14T05:17:50.339Z,0.98
2022-09-14T05:22:57.258Z,0.40
2022-09-14T05:25:29.897Z,0.88
2022-09-14T05:28:03.219Z,0.40
2022-09-14T05:30:35.947Z,0.52
2022-09-14T05:33:09.214Z,0.47
2022-09-14T05:35:41.858Z,0.60
2022-09-14T05:38:15.928Z,0.50
2022-09-14T05:40:48.573Z,0.65
2022-09-14T05:43:22.616Z,0.75
2022-09-14T05:45:55.323Z,0.70
2022-09-14T05:48:27.979Z,0.70
2022-09-14T05:51:01.261Z,0.73
2022-09-14T05:53:35.671Z,0.68
2022-09-14T05:56:10.682Z,0.73
2022-09-14T05:58:44.025Z,0.60
2022-09-14T06:01:19.434Z,0.70
2022-09-14T06:03:54.871Z,0.50
2022-09-14T06:06:27.962Z,0.50
2022-09-14T06:11:37.302Z,0.80
2022-09-14T06:14:10.039Z,0.60
2022-09-14T06:16:42.689Z,0.65
2022-09-14T06:19:16.353Z,0.60
2022-09-14T06:21:51.487Z,0.93
2022-09-14T06:24:26.073Z,0.80
2022-09-14T06:26:59.897Z,0.55
2022-09-14T06:29:33.604Z,0.60
2022-09-14T06:32:07.462Z,0.98
2022-09-14T06:34:41.111Z,0.95
2022-09-14T06:37:14.063Z,0.90
2022-09-14T06:39:48.049Z,1.00
2022-09-14T06:42:20.850Z,0.65
2022-09-14T06:44:57.920Z,0.60
2022-09-14T06:47:33.018Z,0.65
2022-09-14T06:50:06.978Z,0.75
2022-09-14T06:52:40.156Z,0.52
2022-09-14T06:55:14.221Z,0.60
2022-09-14T06:57:49.181Z,1.00
2022-09-14T07:00:21.953Z,0.70
2022-09-14T07:02:56.586Z,1.23
2022-09-14T07:05:29.281Z,0.93
2022-09-14T07:08:02.255Z,0.95
2022-09-14T07:10:36.321Z,0.90
2022-09-14T07:13:08.932Z,0.88
2022-09-14T07:15:49.456Z,0.77
2022-09-14T07:18:22.387Z,0.77
2022-09-14T07:20:55.134Z,0.82
2022-09-14T07:23:27.757Z,1.10
2022-09-14T07:26:03.759Z,0.73
2022-09-14T07:28:37.875Z,0.82
2022-09-14T07:31:17.019Z,0.77
2022-09-14T07:33:53.269Z,0.90
2022-09-14T07:36:29.523Z,0.80
2022-09-14T07:39:07.088Z,1.05
2022-09-14T07:41:41.688Z,0.80
2022-09-14T07:44:16.481Z,0.90
2022-09-14T07:46:49.425Z,0.80
2022-09-14T07:49:22.661Z,0.90
2022-09-14T07:51:55.282Z,0.90
2022-09-14T07:54:27.966Z,1.10
2022-09-14T07:57:02.160Z,1.05
2022-09-14T07:59:36.542Z,0.95
2022-09-14T08:02:12.067Z,0.75
2022-09-14T08:04:44.803Z,1.00
2022-09-14T08:07:17.510Z,0.90
2022-09-14T08:09:50.150Z,1.05
2022-09-14T08:12:24.215Z,1.00
2022-09-14T08:14:56.810Z,1.05
2022-09-14T08:17:29.445Z,0.82
2022-09-14T08:20:02.093Z,0.82
2022-09-14T08:22:35.375Z,0.85
2022-09-14T08:25:08.662Z,1.20
2022-09-14T08:27:43.152Z,1.17
2022-09-14T08:30:15.978Z,1.02
2022-09-14T08:32:48.659Z,1.30
2022-09-14T08:35:35.441Z,1.17
2022-09-14T08:38:14.252Z,1.00
2022-09-14T08:40:47.592Z,0.60
2022-09-14T08:43:25.922Z,0.88
2022-09-14T08:46:04.265Z,0.80
2022-09-14T08:48:41.524Z,0.98
2022-09-14T08:51:14.258Z,0.73
2022-09-14T08:53:47.393Z,0.93
2022-09-14T08:56:25.059Z,0.70
2022-09-14T08:59:17.561Z,0.70
2022-09-14T09:01:59.837Z,0.85
2022-09-14T09:04:42.656Z,1.90
2022-09-14T09:07:20.172Z,0.90
2022-09-14T09:09:54.428Z,0.73
2022-09-14T09:12:34.243Z,0.80
2022-09-14T09:15:18.924Z,0.80
2022-09-14T09:17:56.447Z,0.73
2022-09-14T09:20:33.592Z,0.70
2022-09-14T09:23:15.191Z,0.98
2022-09-14T09:25:54.805Z,1.05
2022-09-14T09:28:29.761Z,0.65
2022-09-14T09:31:12.662Z,0.93
2022-09-14T09:34:17.869Z,0.90
2022-09-14T09:36:50.846Z,0.60
2022-09-14T09:44:51.923Z,0.90
2022-09-14T09:47:32.155Z,1.00
2022-09-14T09:50:07.315Z,0.77
2022-09-14T09:52:50.504Z,1.10
2022-09-14T09:55:26.514Z,0.90
2022-09-14T09:58:22.824Z,0.60
2022-09-14T10:01:00.798Z,0.80
2022-09-14T10:03:38.064Z,0.80
2022-09-14T10:06:14.741Z,0.75
2022-09-14T10:08:48.532Z,0.60
2022-09-14T10:11:31.330Z,0.93
2022-09-14T10:14:04.780Z,1.13
2022-09-14T10:16:40.255Z,0.90
2022-09-14T10:19:16.846Z,1.50
2022-09-14T10:22:04.790Z,0.90
2022-09-14T10:24:38.681Z,0.93
2022-09-14T10:27:37.013Z,1.27
2022-09-14T10:30:15.384Z,1.08
2022-09-14T10:32:54.588Z,1.13
2022-09-14T10:35:37.552Z,0.90
2022-09-14T10:38:31.216Z,0.60
2022-09-14T10:41:26.172Z,0.73
2022-09-14T10:44:47.108Z,1.33
2022-09-14T10:48:03.360Z,0.70
2022-09-14T10:50:48.367Z,0.80
2022-09-14T10:53:35.346Z,0.75
2022-09-14T10:56:16.883Z,1.20
2022-09-14T10:59:13.544Z,0.80
2022-09-14T11:02:20.548Z,1.27
2022-09-14T11:05:05.489Z,0.90
2022-09-14T11:07:46.776Z,1.17
2022-09-14T11:10:26.107Z,0.80
2022-09-14T11:13:19.988Z,1.15
2022-09-14T11:16:00.748Z,1.30
2022-09-14T11:18:45.039Z,0.85
2022-09-14T11:21:25.005Z,0.63
2022-09-14T11:24:04.554Z,0.55
2022-09-14T11:26:42.456Z,0.70
2022-09-14T11:29:21.377Z,0.85
2022-09-14T11:32:22.750Z,0.85
2022-09-14T11:35:00.105Z,0.70
2022-09-14T11:37:41.076Z,0.80
2022-09-14T11:40:24.123Z,0.77
2022-09-14T11:45:35.381Z,0.73
2022-09-14T11:48:43.434Z,0.80
2022-09-14T11:51:15.310Z,0.70
2022-09-14T11:53:48.311Z,2.03
2022-09-14T11:59:01.394Z,0.70
2022-09-14T12:01:36.859Z,0.63
2022-09-14T12:04:15.423Z,0.80
2022-09-14T12:06:55.671Z,0.82
2022-09-14T12:09:54.928Z,0.80
2022-09-14T12:12:38.750Z,0.70
2022-09-14T12:15:33.710Z,0.52
2022-09-14T12:18:22.744Z,0.85
2022-09-14T12:21:03.743Z,0.60
2022-09-14T12:23:44.583Z,0.63
2022-09-14T12:26:39.459Z,0.68
2022-09-14T12:29:33.572Z,1.00
2022-09-14T12:32:23.289Z,0.60
2022-09-14T12:35:33.234Z,0.57
2022-09-14T12:38:39.231Z,0.95
2022-09-14T12:41:49.079Z,0.57
2022-09-14T12:44:38.460Z,0.70
2022-09-14T12:47:57.139Z,1.17
2022-09-14T12:50:34.885Z,0.60
2022-09-14T12:53:30.706Z,0.55
2022-09-14T12:56:06.230Z,0.77
2022-09-14T12:59:01.248Z,1.73
2022-09-14T13:01:45.589Z,0.73
2022-09-14T13:04:25.867Z,0.55
2022-09-14T13:07:01.503Z,0.75
2022-09-14T13:09:34.936Z,0.63
2022-09-14T13:12:13.983Z,1.08
2022-09-14T13:14:49.182Z,0.63
2022-09-14T13:17:24.174Z,0.90
2022-09-14T13:19:58.195Z,0.90
2022-09-14T13:22:33.193Z,0.70
2022-09-14T13:25:07.003Z,0.82
2022-09-14T13:27:41.083Z,0.80
2022-09-14T13:30:21.300Z,0.90
2022-09-14T13:32:58.905Z,0.77
2022-09-14T13:35:36.126Z,1.33
2022-09-14T13:38:14.803Z,0.98
2022-09-14T13:40:50.158Z,0.80
2022-09-14T13:43:23.984Z,0.70
2022-09-14T13:45:57.553Z,0.95
2022-09-14T13:48:32.022Z,0.80
2022-09-14T13:51:06.347Z,0.80
2022-09-14T13:53:48.486Z,0.70
2022-09-14T13:56:25.139Z,0.97
2022-09-14T13:59:20.613Z,0.85
2022-09-14T14:01:57.118Z,0.82
2022-09-14T14:04:35.484Z,1.17
2022-09-14T14:07:19.533Z,1.27
2022-09-14T14:09:54.460Z,0.68
2022-09-14T14:12:29.922Z,0.85
2022-09-14T14:15:04.707Z,0.90
2022-09-14T14:17:39.070Z,1.10
2022-09-14T14:20:34.889Z,0.95
2022-09-14T14:23:22.605Z,0.75
2022-09-14T14:26:08.164Z,1.10
2022-09-14T14:28:42.358Z,1.00
2022-09-14T14:31:18.448Z,1.00
2022-09-14T14:33:53.393Z,0.80
2022-09-14T14:36:27.467Z,0.80
2022-09-14T14:39:00.137Z,0.88
2022-09-14T14:41:32.795Z,1.55
2022-09-14T14:44:05.577Z,1.10
2022-09-14T14:49:13.239Z,0.82
2022-09-14T14:51:48.607Z,0.90
2022-09-14T14:54:21.320Z,1.20
2022-09-14T14:59:29.511Z,2.08
2022-09-14T15:02:02.384Z,1.10
2022-09-14T15:04:35.025Z,1.10
2022-09-14T15:07:09.097Z,0.82
2022-09-14T15:09:41.786Z,1.13
2022-09-14T15:12:14.537Z,0.95
2022-09-14T15:14:47.195Z,1.08
2022-09-14T15:17:20.142Z,1.23
2022-09-14T15:19:53.560Z,1.00
2022-09-14T15:22:27.584Z,0.80
2022-09-14T15:25:00.366Z,1.48
2022-09-14T15:30:07.137Z,1.35
2022-09-14T15:32:40.664Z,1.60
2022-09-14T15:35:15.154Z,1.48
2022-09-14T15:37:49.651Z,1.20
2022-09-14T15:40:22.389Z,0.93
2022-09-14T15:45:27.691Z,1.07
2022-09-14T15:48:00.328Z,1.55
2022-09-14T15:50:32.958Z,1.63
2022-09-14T15:53:06.965Z,1.38
2022-09-14T15:55:40.807Z,1.38
2022-09-14T15:58:14.084Z,1.17
2022-09-14T16:00:46.983Z,1.20
2022-09-14T16:03:19.672Z,1.23
2022-09-14T16:05:52.308Z,1.35
2022-09-14T16:08:26.353Z,1.08
2022-09-14T16:10:59.936Z,1.02
2022-09-14T16:13:34.120Z,1.08
2022-09-14T16:16:08.726Z,1.05
2022-09-14T16:18:42.573Z,1.52
2022-09-14T16:21:18.806Z,1.20
2022-09-14T16:23:54.725Z,1.23
2022-09-14T16:26:29.459Z,1.42
2022-09-14T16:29:02.088Z,2.10
2022-09-14T16:31:36.490Z,1.92
2022-09-14T16:34:12.515Z,2.45
2022-09-14T16:36:45.898Z,1.83
2022-09-14T16:39:23.466Z,2.28
2022-09-14T16:41:58.584Z,1.80
2022-09-14T16:44:31.529Z,1.88
2022-09-14T16:47:04.419Z,1.70
2022-09-14T16:52:11.995Z,1.98
2022-09-14T16:54:45.998Z,1.33
2022-09-14T16:57:18.631Z,1.40
2022-09-14T16:59:51.407Z,1.65
2022-09-14T17:02:24.095Z,4.10
2022-09-14T17:07:29.907Z,2.00
2022-09-14T17:10:04.246Z,1.42
2022-09-14T17:12:37.041Z,1.35
2022-09-14T17:15:11.241Z,1.88
2022-09-14T17:17:43.849Z,1.40
2022-09-14T17:20:16.763Z,1.55
2022-09-14T17:25:24.295Z,1.63
2022-09-14T17:27:56.973Z,1.55
2022-09-14T17:30:29.748Z,1.48
2022-09-14T17:33:02.430Z,1.40
2022-09-14T17:35:35.168Z,1.83
2022-09-14T17:38:07.819Z,1.35
2022-09-14T17:40:41.891Z,1.38
2022-09-14T17:43:15.316Z,1.02
2022-09-14T17:45:53.351Z,1.40
2022-09-14T17:48:27.580Z,1.38
2022-09-14T17:51:00.495Z,1.00
2022-09-14T17:53:37.117Z,1.23
2022-09-14T17:56:14.130Z,1.17
2022-09-14T17:58:48.746Z,1.05
2022-09-14T18:01:24.280Z,1.00
2022-09-14T18:03:59.296Z,1.02
2022-09-14T18:06:35.692Z,1.13
2022-09-14T18:09:13.491Z,0.90
2022-09-14T18:11:48.306Z,1.20
2022-09-14T18:14:21.019Z,1.08
2022-09-14T18:16:53.941Z,1.13
2022-09-14T18:19:26.800Z,1.10
2022-09-14T18:21:59.669Z,2.08
2022-09-14T18:24:32.652Z,1.58
2022-09-14T18:27:06.995Z,1.02
2022-09-14T18:29:40.147Z,1.00
2022-09-14T18:32:12.869Z,1.08
2022-09-14T18:34:45.678Z,0.75
2022-09-14T18:37:18.852Z,1.02
2022-09-14T18:39:51.623Z,0.95
2022-09-14T18:42:25.804Z,1.13
2022-09-14T18:44:58.633Z,1.40
2022-09-14T18:47:31.460Z,0.88
2022-09-14T18:50:05.107Z,1.20
2022-09-14T18:52:37.907Z,1.60
2022-09-14T18:55:10.737Z,1.73
2022-09-14T18:57:48.211Z,2.13
2022-09-14T19:00:21.187Z,3.33
2022-09-14T19:05:29.953Z,1.90
2022-09-14T19:08:03.131Z,2.13
2022-09-14T19:10:38.040Z,1.35
2022-09-14T19:13:12.185Z,1.05
2022-09-14T19:15:44.948Z,1.50
2022-09-14T19:18:17.851Z,1.88
2022-09-14T19:21:05.785Z,1.60
2022-09-14T19:23:40.349Z,1.98
2022-09-14T19:26:17.265Z,1.83
2022-09-14T19:28:51.382Z,1.70
2022-09-14T19:31:24.486Z,2.60
2022-09-14T19:33:57.631Z,1.70
2022-09-14T19:36:31.251Z,1.48
2022-09-14T19:39:05.703Z,2.42
2022-09-14T19:41:39.574Z,2.17
2022-09-14T19:44:14.301Z,1.58
2022-09-14T19:46:47.172Z,1.73
2022-09-14T19:51:54.805Z,1.48
2022-09-14T19:54:27.659Z,1.70
2022-09-14T19:57:01.023Z,1.27
2022-09-14T19:59:35.179Z,1.65
2022-09-14T20:02:10.948Z,1.60
2022-09-14T20:04:44.074Z,2.10
2022-09-14T20:09:49.369Z,4.20
2022-09-14T20:12:22.058Z,3.90
2022-09-14T20:14:56.108Z,3.30
2022-09-14T20:17:28.774Z,2.50
2022-09-14T20:20:01.518Z,2.17
2022-09-14T20:22:34.193Z,1.80
2022-09-14T20:25:07.687Z,1.10
2022-09-14T20:27:40.590Z,1.38
2022-09-14T20:30:15.129Z,1.58
2022-09-14T20:32:47.891Z,1.30
2022-09-14T20:35:20.936Z,1.40
2022-09-14T20:40:26.418Z,1.30
2022-09-14T20:42:59.295Z,1.23
2022-09-14T20:45:33.315Z,1.20
2022-09-14T20:48:06.036Z,1.10
2022-09-14T20:50:38.826Z,1.70
2022-09-14T20:53:11.485Z,1.00
2022-09-14T20:55:44.254Z,1.20
2022-09-14T20:58:17.001Z,1.00
2022-09-14T21:01:00.837Z,1.20
2022-09-14T21:03:34.287Z,1.00
2022-09-14T21:06:08.506Z,1.00
2022-09-14T21:08:42.430Z,1.05
2022-09-14T21:11:17.660Z,1.15
2022-09-14T21:13:51.789Z,1.50
2022-09-14T21:16:28.311Z,1.30
2022-09-14T21:19:02.869Z,1.08
2022-09-14T21:21:36.013Z,0.80
2022-09-14T21:24:10.570Z,1.25
2022-09-14T21:26:44.116Z,1.27
2022-09-14T21:29:23.765Z,0.85
2022-09-14T21:31:58.143Z,1.15
2022-09-14T21:34:31.405Z,0.98
2022-09-14T21:37:04.068Z,1.35
2022-09-14T21:39:37.994Z,2.00
2022-09-14T21:42:11.091Z,0.98
2022-09-14T21:44:43.763Z,1.05
2022-09-14T21:47:17.716Z,0.82
2022-09-14T21:49:50.695Z,0.90
2022-09-14T21:52:23.437Z,0.90
2022-09-14T21:54:56.294Z,0.77
2022-09-14T21:57:28.894Z,1.00
2022-09-14T22:00:01.721Z,0.90
2022-09-14T22:02:35.878Z,1.15
2022-09-14T22:05:09.203Z,1.08
2022-09-14T22:07:42.309Z,0.80
2022-09-14T22:10:15.106Z,0.70
2022-09-14T22:12:48.561Z,0.88
2022-09-14T22:15:21.266Z,0.75
2022-09-14T22:17:57.494Z,0.70
2022-09-14T22:20:32.275Z,0.82
2022-09-14T22:23:05.044Z,0.50
2022-09-14T22:25:42.511Z,0.80
2022-09-14T22:28:15.171Z,0.85
2022-09-14T22:30:49.265Z,0.63
2022-09-14T22:33:24.815Z,0.73
2022-09-14T22:35:59.024Z,0.50
2022-09-14T22:38:34.118Z,1.02
2022-09-14T22:41:10.378Z,0.70
2022-09-14T22:43:44.494Z,0.88
2022-09-14T22:46:18.480Z,0.75
2022-09-14T22:48:53.343Z,0.60
2022-09-14T22:51:28.552Z,0.60
2022-09-14T22:54:02.179Z,0.80
2022-09-14T22:56:37.916Z,0.90
2022-09-14T22:59:11.384Z,1.25
2022-09-14T23:01:44.070Z,0.65
2022-09-14T23:04:18.194Z,1.00
2022-09-14T23:06:50.987Z,0.88
2022-09-14T23:09:24.110Z,0.95
2022-09-14T23:11:56.727Z,0.85
2022-09-14T23:14:29.537Z,0.90
2022-09-14T23:17:02.232Z,1.17
2022-09-14T23:19:36.293Z,1.00
2022-09-14T23:22:08.941Z,1.00
2022-09-14T23:24:42.957Z,0.88
2022-09-14T23:27:15.629Z,0.98
2022-09-14T23:29:48.329Z,0.70
2022-09-14T23:32:21.076Z,0.88
2022-09-14T23:34:55.204Z,1.15
2022-09-14T23:37:27.904Z,1.30
2022-09-14T23:40:00.795Z,1.00
2022-09-14T23:42:33.646Z,1.38
2022-09-14T23:45:07.588Z,1.20
2022-09-14T23:47:40.383Z,1.40
2022-09-14T23:50:14.395Z,1.45
2022-09-14T23:52:47.328Z,1.55
2022-09-14T23:55:19.978Z,1.30
2022-09-14T23:57:52.808Z,1.70
